Time;durP1;ratioP1;P1;durP2;ratioP2;P2;SDS_P1;SDS_P2;PMS_P1;PMS_P2;Temp;Humidity;BMP_temperature;BMP_pressure;BME280_temperature;BME280_humidity;BME280_pressure;Samples;Min_cycle;Max_cycle;Signal;HPM_P1;HPM_P2
2022/07/13 00:00:16;;;;;;;3.30;0.60;;;;;;;17.33;59.11;100047.63;104330;1277;109042;-72
2022/07/13 00:03:01;;;;;;;3.20;0.70;;;;;;;17.32;59.57;100045.55;104332;1277;138267;-69
2022/07/13 00:05:29;;;;;;;3.40;0.90;;;;;;;17.30;59.64;100044.23;104565;1276;94255;-70
2022/07/13 00:07:57;;;;;;;2.80;0.80;;;;;;;17.29;59.85;100047.53;104334;1277;108362;-73
2022/07/13 00:10:25;;;;;;;3.30;0.70;;;;;;;17.28;60.06;100045.25;104161;1277;138396;-71
2022/07/13 00:12:53;;;;;;;3.20;0.90;;;;;;;17.26;60.32;100039.79;104290;1277;107868;-72
2022/07/13 00:15:21;;;;;;;6.80;1.00;;;;;;;17.24;60.53;100043.65;104171;1276;138153;-71
2022/07/13 00:17:49;;;;;;;4.20;1.20;;;;;;;17.22;60.80;100043.60;104317;1277;94308;-74
2022/07/13 00:20:17;;;;;;;4.10;0.80;;;;;;;17.20;60.96;100038.86;104309;1276;108329;-72
2022/07/13 00:22:45;;;;;;;4.50;0.90;;;;;;;17.18;61.06;100045.05;104251;1276;137937;-72
2022/07/13 00:25:13;;;;;;;4.40;1.10;;;;;;;17.16;61.23;100044.48;104274;1277;108179;-72
2022/07/13 00:27:41;;;;;;;3.80;0.90;;;;;;;17.15;61.63;100047.80;104229;1277;138671;-73
2022/07/13 00:30:10;;;;;;;4.40;0.90;;;;;;;17.13;61.83;100043.96;104282;1278;94478;-72
2022/07/13 00:32:38;;;;;;;8.60;1.10;;;;;;;17.10;62.07;100043.56;104449;1277;108360;-72
2022/07/13 00:35:07;;;;;;;4.20;1.10;;;;;;;17.09;62.46;100047.80;104227;1277;138356;-72
2022/07/13 00:37:35;;;;;;;5.00;1.30;;;;;;;17.06;62.58;100042.55;104357;1278;109077;-72
2022/07/13 00:40:03;;;;;;;4.40;0.90;;;;;;;17.05;62.85;100042.98;104275;1276;138250;-72
2022/07/13 00:42:31;;;;;;;3.80;1.10;;;;;;;17.02;63.24;100044.39;104346;1280;94344;-72
2022/07/13 00:44:59;;;;;;;5.00;1.00;;;;;;;17.01;63.49;100047.51;104189;1278;138368;-71
2022/07/13 00:47:33;;;;;;;3.20;0.90;;;;;;;17.02;63.58;100043.37;104387;1277;98489;-71
2022/07/13 00:50:02;;;;;;;3.50;1.00;;;;;;;17.03;63.83;100044.69;104299;1278;108802;-72
2022/07/13 00:52:30;;;;;;;4.60;1.00;;;;;;;17.04;64.06;100043.59;104246;1278;138148;-71
2022/07/13 00:54:59;;;;;;;3.90;0.80;;;;;;;17.04;64.09;100042.87;104310;1277;94304;-71
2022/07/13 00:57:28;;;;;;;4.90;1.10;;;;;;;17.04;64.27;100039.81;104236;1277;138215;-70
2022/07/13 00:59:56;;;;;;;5.00;1.60;;;;;;;17.03;64.35;100037.55;104322;1277;99832;-73
2022/07/13 01:02:24;;;;;;;4.10;1.10;;;;;;;17.02;64.35;100033.08;104353;1277;108699;-72
2022/07/13 01:04:52;;;;;;;4.00;1.00;;;;;;;17.01;64.63;100036.00;104147;1278;138988;-72
2022/07/13 01:07:20;;;;;;;7.40;1.10;;;;;;;17.00;64.82;100034.11;104265;1277;94330;-72
2022/07/13 01:09:48;;;;;;;6.00;1.30;;;;;;;16.99;64.96;100037.77;104197;1277;137886;-73
2022/07/13 01:12:18;;;;;;;3.80;0.80;;;;;;;16.97;65.21;100037.71;104258;1277;100461;-72
2022/07/13 01:14:47;;;;;;;3.50;0.90;;;;;;;16.96;65.28;100027.53;104261;1277;108793;-72
2022/07/13 01:17:16;;;;;;;4.20;0.80;;;;;;;16.97;65.73;100036.11;104269;1277;138714;-72
2022/07/13 01:19:45;;;;;;;4.60;1.20;;;;;;;16.97;65.85;100029.27;104488;1276;94505;-73
2022/07/13 01:22:19;;;;;;;4.50;1.10;;;;;;;16.98;65.85;100028.35;104250;1277;138611;-71
2022/07/13 01:24:49;;;;;;;3.70;1.10;;;;;;;16.97;66.17;100028.40;104354;1277;99376;-73
2022/07/13 01:27:17;;;;;;;4.50;1.40;;;;;;;16.95;66.28;100019.15;104230;1277;138988;-73
2022/07/13 01:29:46;;;;;;;5.30;1.50;;;;;;;16.94;66.41;100020.50;104291;1277;94245;-73
2022/07/13 01:32:14;;;;;;;6.50;1.30;;;;;;;16.91;66.63;100012.58;104281;1278;94319;-72
2022/07/13 01:34:41;;;;;;;5.20;1.30;;;;;;;16.87;66.76;100018.86;104195;1277;137927;-72
2022/07/13 01:37:10;;;;;;;4.30;1.40;;;;;;;16.85;66.93;100018.10;104286;1277;99312;-72
2022/07/13 01:39:38;;;;;;;3.30;1.20;;;;;;;16.85;66.99;100015.61;104111;1277;138850;-74
2022/07/13 01:42:06;;;;;;;6.70;1.70;;;;;;;16.83;67.28;100011.77;104211;1277;94705;-73
2022/07/13 01:44:34;;;;;;;4.90;1.70;;;;;;;16.81;67.33;100019.63;104241;1278;94509;-73
2022/07/13 01:47:09;;;;;;;3.90;1.50;;;;;;;16.79;67.50;100017.38;104165;1277;137926;-73
2022/07/13 01:49:37;;;;;;;3.70;1.80;;;;;;;16.76;67.66;100015.59;104228;1277;99729;-73
2022/07/13 01:52:05;;;;;;;5.50;1.80;;;;;;;16.71;67.90;100014.23;104125;1277;137960;-73
2022/07/13 01:54:33;;;;;;;4.50;1.50;;;;;;;16.68;68.07;100011.95;104212;1277;94547;-72
2022/07/13 01:57:03;;;;;;;6.80;1.70;;;;;;;16.63;68.61;100015.80;104096;1277;138037;-73
2022/07/13 01:59:30;;;;;;;4.40;1.50;;;;;;;16.57;68.90;100013.98;104209;1278;108341;-72
2022/07/13 02:01:58;;;;;;;5.10;1.70;;;;;;;16.54;69.05;100007.32;104245;1277;97352;-73
2022/07/13 02:04:26;;;;;;;4.40;1.40;;;;;;;16.52;69.28;100002.25;104060;1278;138656;-73
2022/07/13 02:06:54;;;;;;;3.50;1.10;;;;;;;16.52;69.55;100002.30;104218;1278;94357;-73
2022/07/13 02:09:22;;;;;;;4.60;1.60;;;;;;;16.51;69.69;99999.31;104131;1277;138428;-73
2022/07/13 02:11:52;;;;;;;4.20;1.40;;;;;;;16.49;69.68;99999.23;104215;1278;108810;-73
2022/07/13 02:14:19;;;;;;;5.20;1.50;;;;;;;16.48;69.75;99998.21;104206;1277;99486;-73
2022/07/13 02:16:48;;;;;;;5.30;1.60;;;;;;;16.45;69.73;100000.50;104193;1278;138330;-73
2022/07/13 02:19:16;;;;;;;4.30;1.30;;;;;;;16.43;69.97;100001.02;104242;1277;94411;-72
2022/07/13 02:21:44;;;;;;;4.60;1.30;;;;;;;16.37;70.38;99999.17;104133;1278;138471;-72
2022/07/13 02:24:12;;;;;;;3.70;1.30;;;;;;;16.33;70.48;100000.66;104243;1278;108294;-73
2022/07/13 02:26:40;;;;;;;4.80;1.30;;;;;;;16.30;70.48;100004.23;104232;1278;99133;-71
2022/07/13 02:29:08;;;;;;;3.90;1.30;;;;;;;16.29;70.65;100006.81;104115;1277;138584;-73
2022/07/13 02:31:38;;;;;;;4.20;1.30;;;;;;;16.28;70.88;99999.67;104299;1277;94529;-72
2022/07/13 02:34:06;;;;;;;4.80;1.50;;;;;;;16.28;71.08;100007.94;104167;1277;138271;-74
2022/07/13 02:36:34;;;;;;;3.90;1.50;;;;;;;16.28;71.06;100009.73;104341;1278;108382;-72
2022/07/13 02:39:02;;;;;;;5.40;1.60;;;;;;;16.28;71.40;100010.10;104234;1279;138252;-73
2022/07/13 02:41:30;;;;;;;5.50;1.60;;;;;;;16.26;71.62;100011.80;104327;1277;108907;-73
2022/07/13 02:43:58;;;;;;;7.00;1.70;;;;;;;16.23;71.74;100005.89;104328;1277;94257;-71
2022/07/13 02:46:26;;;;;;;3.70;1.30;;;;;;;16.21;71.87;100006.52;104291;1278;138625;-72
2022/07/13 02:48:56;;;;;;;4.20;1.90;;;;;;;16.20;71.99;100001.20;104307;1277;107941;-71
2022/07/13 02:51:26;;;;;;;4.10;1.50;;;;;;;16.19;72.27;100008.61;104314;1279;139822;-72
2022/07/13 02:53:54;;;;;;;4.90;1.70;;;;;;;16.18;72.30;100001.65;104326;1276;109137;-72
2022/07/13 02:56:23;;;;;;;4.20;1.50;;;;;;;16.19;72.52;100003.04;104213;1278;94383;-72
2022/07/13 02:58:51;;;;;;;4.30;1.60;;;;;;;16.20;72.46;100006.39;104286;1277;137934;-72
2022/07/13 03:01:19;;;;;;;4.80;1.50;;;;;;;16.19;72.59;100008.08;104388;1277;108281;-71
2022/07/13 03:03:47;;;;;;;3.70;1.30;;;;;;;16.17;72.64;100007.48;104141;1280;138457;-73
2022/07/13 03:06:16;;;;;;;6.30;1.90;;;;;;;16.17;72.72;100007.83;104315;1277;108929;-72
2022/07/13 03:08:44;;;;;;;5.80;1.50;;;;;;;16.16;73.01;100013.77;104284;1278;94376;-73
2022/07/13 03:11:12;;;;;;;3.80;1.30;;;;;;;16.16;72.94;100006.79;104252;1277;138490;-73
2022/07/13 03:13:40;;;;;;;4.60;1.50;;;;;;;16.17;73.01;100013.36;104372;1277;108018;-72
2022/07/13 03:16:09;;;;;;;4.80;1.70;;;;;;;16.18;73.20;100010.10;104188;1278;138880;-71
2022/07/13 03:18:36;;;;;;;6.00;1.60;;;;;;;16.19;73.23;100012.20;104320;1277;109048;-73
2022/07/13 03:21:08;;;;;;;5.20;1.70;;;;;;;16.20;73.13;100006.04;104296;1277;139337;-71
2022/07/13 03:23:36;;;;;;;;;;;;;;;16.22;73.35;100009.67;104868;1279;94349;-72
2022/07/13 03:26:04;;;;;;;5.50;1.60;;;;;;;16.23;73.46;100006.08;104377;1279;108525;-72
2022/07/13 03:28:32;;;;;;;4.00;1.80;;;;;;;16.24;73.36;100007.42;104253;1277;138611;-72
2022/07/13 03:31:01;;;;;;;5.30;1.80;;;;;;;16.26;73.29;100004.84;104386;1277;109509;-72
2022/07/13 03:33:28;;;;;;;4.20;1.50;;;;;;;16.27;73.40;100008.18;104289;1277;138450;-72
2022/07/13 03:35:57;;;;;;;4.60;1.70;;;;;;;16.27;73.50;100007.47;104362;1278;95062;-72
2022/07/13 03:38:25;;;;;;;5.30;1.80;;;;;;;16.26;73.58;100009.86;104308;1278;108343;-72
2022/07/13 03:40:53;;;;;;;5.60;1.50;;;;;;;16.27;73.62;100007.84;104270;1277;138893;-71
2022/07/13 03:43:22;;;;;;;5.10;1.60;;;;;;;16.29;73.61;100008.27;104232;1277;108858;-72
2022/07/13 03:45:50;;;;;;;4.30;1.50;;;;;;;16.31;73.48;100002.20;104216;1279;139119;-72
2022/07/13 03:48:18;;;;;;;4.30;1.70;;;;;;;16.34;73.51;100005.45;104257;1279;94641;-72
2022/07/13 03:50:47;;;;;;;4.90;2.00;;;;;;;16.37;73.47;100010.84;104387;1278;106686;-72
2022/07/13 03:53:16;;;;;;;5.90;1.90;;;;;;;16.38;73.44;100014.16;104461;1277;138447;-72
2022/07/13 03:55:44;;;;;;;4.20;1.40;;;;;;;16.38;73.47;100017.59;104335;1277;108878;-71
2022/07/13 03:58:12;;;;;;;4.20;1.70;;;;;;;16.38;73.58;100013.46;104285;1277;138136;-73
2022/07/13 04:00:41;;;;;;;4.10;1.70;;;;;;;16.36;73.57;100022.50;104350;1278;94356;-72
2022/07/13 04:03:09;;;;;;;4.90;1.60;;;;;;;16.35;73.62;100022.94;104266;1278;138675;-72
2022/07/13 04:05:38;;;;;;;5.40;1.60;;;;;;;16.38;73.56;100023.30;104499;1277;99370;-71
2022/07/13 04:08:07;;;;;;;4.10;1.60;;;;;;;16.42;73.58;100025.62;104454;1277;108788;-71
2022/07/13 04:10:37;;;;;;;4.20;1.50;;;;;;;16.43;73.61;100025.70;104288;1278;139647;-72
2022/07/13 04:13:05;;;;;;;4.50;1.70;;;;;;;16.45;73.51;100025.63;104708;1277;94400;-72
2022/07/13 04:15:38;;;;;;;4.70;1.60;;;;;;;16.43;73.67;100027.90;104643;1278;141187;-73
2022/07/13 04:18:08;;;;;;;4.40;2.00;;;;;;;16.38;73.88;100027.60;104468;1277;98315;-71
2022/07/13 04:20:36;;;;;;;6.10;2.20;;;;;;;16.34;73.95;100032.30;104380;1277;108867;-72
2022/07/13 04:23:04;;;;;;;5.00;1.70;;;;;;;16.32;74.02;100030.11;104343;1277;138923;-72
2022/07/13 04:25:33;;;;;;;5.30;1.40;;;;;;;16.30;74.11;100037.70;104473;1277;94771;-71
2022/07/13 04:28:01;;;;;;;5.70;1.70;;;;;;;16.32;74.24;100038.71;104262;1277;138942;-72
2022/07/13 04:30:29;;;;;;;8.60;1.40;;;;;;;16.34;74.12;100041.64;104483;1277;98445;-73
2022/07/13 04:32:57;;;;;;;5.00;1.80;;;;;;;16.36;74.23;100040.11;104120;1277;139130;-72
2022/07/13 04:35:26;;;;;;;4.30;1.60;;;;;;;16.38;74.03;100038.52;104358;1277;94568;-72
2022/07/13 04:37:54;;;;;;;4.90;1.70;;;;;;;16.42;73.94;100037.27;104449;1277;94226;-72
2022/07/13 04:40:22;;;;;;;5.20;1.90;;;;;;;16.43;74.00;100042.60;104136;1277;139319;-71
2022/07/13 04:42:50;;;;;;;3.50;1.20;;;;;;;16.42;73.92;100042.47;104346;1277;98549;-72
2022/07/13 04:45:20;;;;;;;4.20;1.50;;;;;;;16.41;73.91;100042.31;104337;1274;139281;-70
2022/07/13 04:47:50;;;;;;;5.50;1.50;;;;;;;16.41;73.97;100040.35;104405;1277;94589;-72
2022/07/13 04:50:19;;;;;;;4.20;1.30;;;;;;;16.40;73.96;100037.18;104441;1277;95469;-72
2022/07/13 04:52:47;;;;;;;5.30;1.30;;;;;;;16.39;74.00;100037.58;104272;1277;138243;-70
2022/07/13 04:55:16;;;;;;;5.50;1.80;;;;;;;16.41;73.95;100036.98;104548;1277;99380;-71
2022/07/13 04:57:44;;;;;;;6.00;1.50;;;;;;;16.40;73.94;100035.00;104381;1277;138296;-72
2022/07/13 05:00:16;;;;;;;6.80;1.60;;;;;;;16.38;74.08;100034.41;104454;1277;95432;-72
2022/07/13 05:02:44;;;;;;;4.80;1.80;;;;;;;16.35;74.06;100035.87;104379;1277;95478;-72
2022/07/13 05:05:12;;;;;;;4.70;1.60;;;;;;;16.32;74.13;100036.89;104179;1277;137870;-72
2022/07/13 05:07:40;;;;;;;4.20;1.50;;;;;;;16.30;74.23;100037.02;104333;1277;99605;-70
2022/07/13 05:10:09;;;;;;;13.50;6.10;;;;;;;16.29;74.34;100039.42;104236;1277;138723;-71
2022/07/13 05:12:39;;;;;;;5.30;1.70;;;;;;;16.28;74.34;100034.27;104511;1275;94334;-72
2022/07/13 05:15:09;;;;;;;6.20;1.70;;;;;;;16.31;74.25;100039.63;104221;1277;142171;-71
2022/07/13 05:17:38;;;;;;;4.00;1.40;;;;;;;16.33;74.24;100045.44;105681;1277;108421;-71
2022/07/13 05:20:07;;;;;;;4.70;2.00;;;;;;;16.36;74.21;100044.94;104503;1277;97634;-71
2022/07/13 05:22:39;;;;;;;3.90;1.30;;;;;;;16.38;74.07;100050.73;104417;1276;138711;-72
2022/07/13 05:25:08;;;;;;;5.20;1.50;;;;;;;16.38;74.24;100048.18;104484;1276;94373;-71
2022/07/13 05:27:36;;;;;;;4.90;1.50;;;;;;;16.37;74.19;100046.63;104438;1274;138498;-71
2022/07/13 05:30:04;;;;;;;5.20;1.90;;;;;;;16.36;74.09;100046.38;104584;1275;106433;-71
2022/07/13 05:32:32;;;;;;;4.00;1.30;;;;;;;16.36;74.11;100041.54;104473;1277;99451;-71
2022/07/13 05:35:01;;;;;;;4.70;1.60;;;;;;;16.37;74.19;100044.46;104422;1276;139049;-70
2022/07/13 05:37:29;;;;;;;5.90;1.30;;;;;;;16.40;74.15;100046.66;104367;1276;94404;-71
2022/07/13 05:39:57;;;;;;;4.20;1.40;;;;;;;16.43;74.37;100044.87;104397;1277;139212;-70
2022/07/13 05:42:27;;;;;;;6.70;1.70;;;;;;;16.48;74.20;100049.66;104539;1274;107348;-71
2022/07/13 05:44:55;;;;;;;4.00;1.40;;;;;;;16.52;74.23;100048.30;104457;1274;99273;-71
2022/07/13 05:47:23;;;;;;;4.30;1.40;;;;;;;16.61;74.26;100045.67;104284;1277;109323;-72
2022/07/13 05:49:51;;;;;;;4.60;1.70;;;;;;;16.65;74.22;100050.09;104468;1277;94530;-72
2022/07/13 05:52:21;;;;;;;6.90;3.00;;;;;;;16.70;74.15;100055.00;104263;1277;138013;-70
2022/07/13 05:54:49;;;;;;;3.80;1.50;;;;;;;16.76;74.12;100059.70;104432;1274;108344;-73
2022/07/13 05:57:18;;;;;;;5.40;1.70;;;;;;;16.80;74.11;100059.28;104308;1277;138344;-71
2022/07/13 05:59:45;;;;;;;5.60;1.50;;;;;;;16.87;73.91;100064.63;104366;1277;108773;-72
2022/07/13 06:02:13;;;;;;;5.90;1.50;;;;;;;16.96;73.96;100064.88;104425;1277;94309;-72
2022/07/13 06:04:41;;;;;;;3.50;1.50;;;;;;;17.03;73.90;100065.69;104259;1277;138602;-71
2022/07/13 06:07:09;;;;;;;8.00;1.50;;;;;;;17.14;73.62;100070.77;104263;1277;106313;-72
2022/07/13 06:09:37;;;;;;;5.20;1.90;;;;;;;17.28;73.31;100071.24;104226;1277;138731;-71
2022/07/13 06:12:05;;;;;;;6.00;1.90;;;;;;;17.36;72.74;100073.81;104308;1277;107929;-71
2022/07/13 06:14:33;;;;;;;4.80;1.50;;;;;;;17.43;72.55;100074.85;104313;1277;94319;-69
2022/07/13 06:17:01;;;;;;;4.80;1.90;;;;;;;17.46;72.27;100076.26;104294;1275;138059;-71
2022/07/13 06:19:29;;;;;;;4.10;1.50;;;;;;;17.48;72.03;100083.29;104375;1277;108326;-71
2022/07/13 06:21:57;;;;;;;4.60;1.70;;;;;;;17.49;71.98;100083.47;104297;1276;138243;-69
2022/07/13 06:24:26;;;;;;;4.60;1.60;;;;;;;17.47;72.02;100083.17;103838;1276;107887;-71
2022/07/13 06:26:54;;;;;;;6.30;1.70;;;;;;;17.46;72.04;100085.21;104433;1277;94321;-70
2022/07/13 06:29:22;;;;;;;5.80;1.40;;;;;;;17.45;71.84;100086.39;104327;1277;138996;-70
2022/07/13 06:31:49;;;;;;;3.10;1.20;;;;;;;17.45;71.73;100086.34;104383;1277;108390;-70
2022/07/13 06:34:17;;;;;;;3.80;1.30;;;;;;;17.50;71.57;100092.37;104299;1276;138012;-71
2022/07/13 06:36:45;;;;;;;4.80;1.50;;;;;;;17.55;71.39;100084.88;104432;1276;106832;-71
2022/07/13 06:39:13;;;;;;;7.60;1.60;;;;;;;17.60;71.27;100077.02;104330;1277;138306;-70
2022/07/13 06:41:41;;;;;;;4.00;1.60;;;;;;;17.69;71.26;100084.20;104387;1277;94331;-69
2022/07/13 06:44:09;;;;;;;4.40;1.70;;;;;;;17.83;71.29;100083.17;104391;1277;108184;-70
2022/07/13 06:46:37;;;;;;;3.10;1.20;;;;;;;17.98;70.60;100074.75;104275;1274;138988;-70
2022/07/13 06:49:05;;;;;;;4.80;1.60;;;;;;;18.17;69.42;100074.82;104837;1274;108755;-69
2022/07/13 06:51:33;;;;;;;4.40;1.60;;;;;;;18.37;69.19;100073.54;104199;1277;138543;-71
2022/07/13 06:54:09;;;;;;;4.10;1.30;;;;;;;18.58;67.93;100073.82;104453;1274;94391;-71
2022/07/13 06:56:37;;;;;;;4.50;1.50;;;;;;;18.76;67.39;100076.26;104460;1274;108336;-71
2022/07/13 06:59:05;;;;;;;4.10;1.20;;;;;;;18.92;67.03;100066.98;104340;1274;138163;-70
2022/07/13 07:01:32;;;;;;;3.70;1.10;;;;;;;19.07;66.40;100081.45;104306;1274;108844;-70
2022/07/13 07:04:00;;;;;;;4.20;1.40;;;;;;;19.21;65.17;100075.48;103792;1274;138552;-70
2022/07/13 07:06:28;;;;;;;2.90;1.00;;;;;;;19.36;64.44;100071.23;104476;1274;94819;-71
2022/07/13 07:08:58;;;;;;;4.70;1.30;;;;;;;19.53;64.53;100070.91;104491;1274;109630;-70
2022/07/13 07:11:26;;;;;;;5.00;2.00;;;;;;;19.70;65.18;100078.06;104442;1274;99620;-70
2022/07/13 07:13:54;;;;;;;3.80;1.40;;;;;;;19.84;64.57;100073.34;104429;1274;108887;-71
2022/07/13 07:16:22;;;;;;;4.90;1.30;;;;;;;19.96;63.93;100066.02;104359;1274;138038;-71
2022/07/13 07:18:51;;;;;;;3.40;1.40;;;;;;;20.07;63.37;100063.80;104491;1274;94419;-70
2022/07/13 07:21:40;;;;;;;3.90;1.20;;;;;;;20.18;62.43;100065.73;104357;1274;138973;-70
2022/07/13 07:24:08;;;;;;;3.70;1.10;;;;;;;20.26;61.93;100063.70;104425;1274;99274;-71
2022/07/13 07:26:35;;;;;;;3.40;0.90;;;;;;;20.33;60.88;100067.87;104447;1274;108754;-70
2022/07/13 07:29:03;;;;;;;4.20;1.10;;;;;;;20.37;59.47;100061.08;104378;1274;138249;-70
2022/07/13 07:31:31;;;;;;;3.50;1.20;;;;;;;20.42;59.79;100060.60;104490;1274;94327;-70
2022/07/13 07:33:59;;;;;;;3.90;0.80;;;;;;;20.42;60.33;100056.93;104381;1274;137881;-71
2022/07/13 07:36:27;;;;;;;3.40;1.10;;;;;;;20.48;59.95;100056.39;104484;1274;99532;-70
2022/07/13 07:38:55;;;;;;;3.40;0.90;;;;;;;20.55;58.61;100056.02;103642;1276;108732;-70
2022/07/13 07:41:23;;;;;;;5.20;1.10;;;;;;;20.63;58.94;100048.36;104454;1274;95410;-70
2022/07/13 07:43:51;;;;;;;3.00;0.70;;;;;;;20.72;58.31;100053.91;104478;1274;94306;-70
2022/07/13 07:46:19;;;;;;;3.00;0.90;;;;;;;20.80;58.91;100055.63;104435;1274;138118;-72
2022/07/13 07:48:47;;;;;;;4.50;0.90;;;;;;;20.89;57.66;100052.79;103898;1274;98412;-70
2022/07/13 07:51:15;;;;;;;3.40;1.00;;;;;;;20.98;57.74;100050.33;103733;1274;138511;-69
2022/07/13 07:53:43;;;;;;;5.30;1.30;;;;;;;21.06;56.87;100055.83;103907;1274;94466;-70
2022/07/13 07:56:11;;;;;;;3.00;1.00;;;;;;;21.14;57.00;100057.76;103847;1275;94355;-71
2022/07/13 07:58:40;;;;;;;3.00;0.70;;;;;;;21.24;56.80;100054.85;104477;1274;137980;-69
2022/07/13 08:01:08;;;;;;;4.20;0.80;;;;;;;21.34;57.10;100055.02;103855;1274;99415;-70
2022/07/13 08:03:36;;;;;;;2.50;0.80;;;;;;;21.43;55.37;100059.75;103792;1275;138679;-70
2022/07/13 08:06:04;;;;;;;2.40;0.70;;;;;;;21.51;55.83;100054.79;103872;1273;94398;-70
2022/07/13 08:08:33;;;;;;;4.20;1.40;;;;;;;21.65;56.06;100049.92;103922;1274;94568;-70
2022/07/13 08:11:10;;;;;;;5.10;1.10;;;;;;;21.89;55.43;100050.92;104279;1274;137929;-70
2022/07/13 08:13:38;;;;;;;3.60;1.00;;;;;;;22.11;53.09;100046.15;104623;1274;99662;-70
2022/07/13 08:16:06;;;;;;;4.10;0.90;;;;;;;22.30;52.72;100051.34;104258;1274;137820;-71
2022/07/13 08:18:34;;;;;;;5.60;1.00;;;;;;;22.47;51.67;100045.61;104322;1275;94333;-69
2022/07/13 08:21:22;;;;;;;4.90;1.10;;;;;;;22.66;51.83;100037.86;103664;1275;138265;-70
2022/07/13 08:23:54;;;;;;;3.50;0.90;;;;;;;22.84;52.25;100040.77;104133;1274;107897;-70
2022/07/13 08:26:27;;;;;;;3.50;0.90;;;;;;;23.01;51.83;100039.35;104397;1274;99483;-70
2022/07/13 08:28:57;;;;;;;3.90;1.00;;;;;;;23.17;51.46;100047.21;104373;1274;137999;-71
2022/07/13 08:31:26;;;;;;;3.70;0.70;;;;;;;23.34;50.53;100052.66;104324;1274;94717;-70
2022/07/13 08:39:28;;;;;;;3.40;0.80;;;;;;;23.96;46.73;100057.55;103640;1274;138433;-69
2022/07/13 08:42:00;;;;;;;2.90;0.80;;;;;;;24.11;46.09;100056.39;103721;1275;109138;-70
2022/07/13 08:44:27;;;;;;;2.90;0.70;;;;;;;24.21;46.34;100060.77;104471;1274;94830;-71
2022/07/13 08:47:05;;;;;;;3.70;0.80;;;;;;;24.37;46.93;100063.14;104299;1274;138023;-70
2022/07/13 08:49:33;;;;;;;4.20;0.90;;;;;;;24.51;46.17;100062.78;104506;1274;108754;-69
2022/07/13 08:52:02;;;;;;;2.70;0.80;;;;;;;24.63;45.33;100060.86;103900;1275;138184;-71
2022/07/13 08:54:32;;;;;;;3.40;0.90;;;;;;;24.70;44.33;100067.48;104278;1276;108775;-70
2022/07/13 08:57:00;;;;;;;3.40;0.90;;;;;;;24.80;45.02;100068.38;104196;1274;138252;-70
2022/07/13 08:59:28;;;;;;;3.30;0.70;;;;;;;24.93;43.91;100071.01;104488;1274;94914;-70
2022/07/13 09:01:56;;;;;;;3.10;0.80;;;;;;;25.01;42.76;100071.38;103684;1274;971617;-70
2022/07/13 09:04:26;;;;;;;4.00;0.80;;;;;;;25.08;42.65;100066.38;104252;1275;138626;-71
2022/07/13 09:06:56;;;;;;;2.60;0.80;;;;;;;25.19;42.57;100068.61;104877;1274;108834;-71
2022/07/13 09:09:33;;;;;;;3.50;0.80;;;;;;;25.31;42.99;100073.50;107137;1272;138731;-71
2022/07/13 09:12:23;;;;;;;3.20;0.80;;;;;;;25.45;41.83;100074.75;104624;1274;94347;-71
2022/07/13 09:14:56;;;;;;;4.30;0.80;;;;;;;25.54;41.80;100075.23;104483;1274;108352;-71
2022/07/13 09:17:43;;;;;;;3.10;0.70;;;;;;;25.62;41.23;100081.21;107694;1274;100166;-70
2022/07/13 09:20:14;;;;;;;3.70;0.70;;;;;;;25.72;41.26;100082.58;104714;1274;109090;-71
2022/07/13 09:22:53;;;;;;;5.00;0.70;;;;;;;25.99;40.41;100087.29;104546;1274;138709;-70
2022/07/13 09:25:25;;;;;;;4.10;0.70;;;;;;;26.34;39.56;100085.25;105070;1274;94678;-71
2022/07/13 09:27:53;;;;;;;3.40;0.90;;;;;;;26.91;39.34;100088.38;104434;1274;137992;-70
2022/07/13 09:30:26;;;;;;;4.40;0.80;;;;;;;27.46;38.10;100085.64;104301;1274;99409;-70
2022/07/13 09:32:57;;;;;;;3.50;0.90;;;;;;;27.93;37.59;100087.91;104328;1274;108795;-71
2022/07/13 09:35:44;;;;;;;3.70;0.70;;;;;;;28.47;35.17;100088.04;104357;1274;94609;-71
2022/07/13 09:38:32;;;;;;;3.50;0.70;;;;;;;29.38;34.72;100089.14;104368;1274;94809;-70
2022/07/13 09:41:18;;;;;;;3.60;0.70;;;;;;;30.39;33.17;100093.21;104239;1276;138210;-71
2022/07/13 09:46:59;;;;;;;3.50;0.60;;;;;;;32.08;30.61;100096.53;104147;1274;138200;-71
2022/07/13 09:49:44;;;;;;;5.10;0.80;;;;;;;33.01;29.43;100094.58;104271;1274;94386;-72
2022/07/13 09:52:16;;;;;;;4.30;0.80;;;;;;;33.60;27.27;100100.46;104242;1274;138481;-73
2022/07/13 09:54:51;;;;;;;3.30;0.90;;;;;;;34.01;26.94;100098.83;104321;1274;107176;-72
2022/07/13 09:57:22;;;;;;;2.90;0.70;;;;;;;34.45;26.79;100109.20;104175;1276;138804;-72
2022/07/13 09:59:52;;;;;;;4.20;0.80;;;;;;;34.72;26.17;100104.65;104281;1274;108529;-73
2022/07/13 10:02:20;;;;;;;2.60;0.60;;;;;;;35.13;26.14;100109.71;104355;1274;94295;-72
2022/07/13 10:04:49;;;;;;;3.20;0.70;;;;;;;35.25;25.30;100107.77;104246;1274;137893;-73
2022/07/13 10:07:19;;;;;;;2.70;0.60;;;;;;;35.46;25.51;100107.71;104434;1275;109109;-73
2022/07/13 10:09:48;;;;;;;3.70;0.60;;;;;;;35.66;25.12;100102.26;104331;1277;138263;-73
2022/07/13 10:12:16;;;;;;;4.20;0.70;;;;;;;35.58;24.71;100100.65;104259;1274;108894;-72
2022/07/13 10:14:46;;;;;;;4.30;0.80;;;;;;;35.73;25.24;100100.80;104162;1274;94750;-73
2022/07/13 10:17:21;;;;;;;2.20;0.60;;;;;;;36.09;24.91;100103.53;104250;1274;137773;-72
2022/07/13 10:19:56;;;;;;;3.60;0.80;;;;;;;36.21;24.39;100108.98;104399;1274;108416;-72
2022/07/13 10:22:28;;;;;;;6.90;0.80;;;;;;;36.34;24.19;100103.41;104216;1274;138047;-73
2022/07/13 10:24:58;;;;;;;3.00;0.70;;;;;;;36.39;24.33;100109.42;103686;1276;107753;-71
2022/07/13 10:27:30;;;;;;;3.70;0.80;;;;;;;36.54;24.64;100104.60;104268;1273;138445;-71
2022/07/13 10:30:00;;;;;;;4.60;0.90;;;;;;;36.93;24.78;100103.94;104732;1274;94334;-71
2022/07/13 10:32:33;;;;;;;3.60;0.80;;;;;;;37.21;24.63;100103.95;104332;1274;108330;-73
2022/07/13 10:35:09;;;;;;;3.30;0.80;;;;;;;37.47;24.20;100108.07;104231;1274;138220;-71
2022/07/13 10:37:56;;;;;;;4.50;0.90;;;;;;;37.70;23.93;100114.70;104480;1274;108787;-71
2022/07/13 10:40:30;;;;;;;4.90;1.00;;;;;;;37.78;23.83;100111.98;104276;1274;138607;-70
2022/07/13 10:43:01;;;;;;;4.40;0.90;;;;;;;37.67;23.30;100116.42;104357;1274;94342;-72
2022/07/13 10:45:38;;;;;;;4.60;0.90;;;;;;;37.44;23.27;100114.05;104144;1274;138402;-70
2022/07/13 10:48:22;;;;;;;4.00;0.90;;;;;;;37.45;23.72;100114.97;104339;1274;99445;-70
2022/07/13 10:50:55;;;;;;;4.60;1.00;;;;;;;37.58;24.30;100113.46;104367;1274;108981;-71
2022/07/13 10:53:50;;;;;;;3.10;0.80;;;;;;;37.87;23.55;100109.65;104815;1274;138148;-70
2022/07/13 10:56:20;;;;;;;4.80;0.90;;;;;;;37.84;22.95;100108.22;104254;1274;94918;-71
2022/07/13 10:58:50;;;;;;;4.60;1.00;;;;;;;37.66;23.02;100115.58;104279;1274;138065;-71
2022/07/13 11:01:30;;;;;;;4.60;1.00;;;;;;;37.57;23.10;100113.77;104389;1274;99477;-70
2022/07/13 11:03:59;;;;;;;5.20;0.90;;;;;;;37.22;23.35;100108.89;104222;1274;138049;-71
2022/07/13 11:06:29;;;;;;;5.50;1.00;;;;;;;36.78;23.78;100109.73;104336;1274;94547;-71
2022/07/13 11:09:06;;;;;;;4.20;1.00;;;;;;;35.97;25.12;100109.50;104298;1274;94307;-71
2022/07/13 11:11:34;;;;;;;3.50;0.90;;;;;;;35.16;26.81;100110.95;104356;1274;108421;-69
2022/07/13 11:14:40;;;;;;;5.00;1.00;;;;;;;34.62;27.51;100118.60;104450;1274;99418;-69
2022/07/13 11:17:13;;;;;;;5.20;1.10;;;;;;;33.71;27.71;100117.81;104259;1274;138019;-71
2022/07/13 11:19:52;;;;;;;5.00;1.30;;;;;;;32.87;28.61;100113.58;104380;1274;94512;-71
2022/07/13 11:22:22;;;;;;;3.70;1.00;;;;;;;32.12;29.62;100110.17;104310;1275;137977;-71
2022/07/13 11:25:15;;;;;;;3.50;0.90;;;;;;;31.63;30.67;100115.29;104493;1274;108328;-70
2022/07/13 11:27:52;;;;;;;3.50;0.80;;;;;;;31.24;31.13;100113.90;104228;1275;138301;-71
2022/07/13 11:30:28;;;;;;;4.40;0.90;;;;;;;31.04;31.74;100111.55;103806;1274;108986;-71
2022/07/13 11:32:56;;;;;;;3.60;0.90;;;;;;;30.80;31.99;100111.06;104301;1277;94986;-69